Time;durP1;ratioP1;P1;durP2;ratioP2;P2;SDS_P1;SDS_P2;PMS_P1;PMS_P2;Temp;Humidity;BMP_temperature;BMP_pressure;BME280_temperature;BME280_humidity;BME280_pressure;Samples;Min_cycle;Max_cycle;Signal;HPM_P1;HPM_P2
2021/04/28 00:00:31;;;;;;;3.52;3.00;;;;;;;10.79;58.02;101874.55;1743462;80;21173;-48
2021/04/28 00:03:00;;;;;;;4.40;3.27;;;;;;;10.78;58.10;101870.20;1729318;82;21632;-48
2021/04/28 00:05:28;;;;;;;5.22;3.22;;;;;;;10.78;58.18;101864.98;1735479;82;21166;-48
2021/04/28 00:07:56;;;;;;;3.22;2.90;;;;;;;10.78;58.39;101866.75;1702027;83;21172;-49
2021/04/28 00:10:31;;;;;;;3.35;3.05;;;;;;;10.77;58.33;101874.99;1771641;79;21817;-48
2021/04/28 00:12:59;;;;;;;3.80;3.40;;;;;;;10.76;58.37;101868.04;1782341;78;21149;-48
2021/04/28 00:15:30;;;;;;;4.12;3.12;;;;;;;10.73;58.45;101865.47;1771791;79;21152;-48
2021/04/28 00:17:58;;;;;;;3.02;2.80;;;;;;;10.72;58.31;101862.42;1766262;79;21121;-49
2021/04/28 00:20:26;;;;;;;3.45;3.02;;;;;;;10.71;58.43;101863.31;1769485;80;21172;-48
2021/04/28 00:22:56;;;;;;;3.35;2.83;;;;;;;10.70;58.54;101864.16;1772767;79;21160;-48
2021/04/28 00:25:27;;;;;;;;;;;;;;;10.70;58.51;101864.16;1771127;79;21306;-48
2021/04/28 00:27:55;;;;;;;3.12;2.83;;;;;;;10.71;58.49;101858.53;1775622;79;20412;-48
2021/04/28 00:30:25;;;;;;;3.00;2.70;;;;;;;10.70;58.46;101858.95;1784336;79;21156;-48
2021/04/28 00:32:54;;;;;;;3.20;2.92;;;;;;;10.76;58.25;101858.92;1789351;79;21168;-48
2021/04/28 00:35:22;;;;;;;2.87;2.55;;;;;;;10.74;58.11;101859.38;1775262;79;21188;-48
2021/04/28 00:37:52;;;;;;;6.60;3.05;;;;;;;10.68;58.47;101860.70;1767877;79;21154;-49
2021/04/28 00:40:24;;;;;;;3.80;3.40;;;;;;;10.70;58.51;101860.27;1777968;79;21288;-48
2021/04/28 00:42:52;;;;;;;4.28;2.92;;;;;;;10.70;58.49;101858.95;1772313;79;21172;-48
2021/04/28 00:45:21;;;;;;;3.45;3.15;;;;;;;10.69;58.45;101856.38;1769031;78;21596;-48
2021/04/28 00:47:49;;;;;;;5.30;3.52;;;;;;;10.66;58.49;101852.03;1784139;79;21159;-48
2021/04/28 00:50:21;;;;;;;3.50;3.10;;;;;;;10.65;58.62;101856.83;1779695;79;21188;-48
2021/04/28 00:52:49;;;;;;;3.20;2.92;;;;;;;10.62;58.83;101862.03;1794792;79;21180;-49
2021/04/28 00:55:18;;;;;;;3.50;3.20;;;;;;;10.59;58.95;101859.46;1732226;82;21157;-50
2021/04/28 00:57:46;;;;;;;4.08;3.42;;;;;;;10.60;58.95;101862.48;1738388;82;21168;-48
2021/04/28 01:00:16;;;;;;;3.40;3.10;;;;;;;10.60;58.84;101859.88;1747294;81;21184;-48
2021/04/28 01:02:44;;;;;;;4.65;4.05;;;;;;;10.60;58.80;101862.48;1740014;81;21183;-48
2021/04/28 01:05:13;;;;;;;2.90;2.70;;;;;;;10.60;58.89;101872.89;1736572;81;21224;-49
2021/04/28 01:07:44;;;;;;;3.30;3.00;;;;;;;10.60;59.07;101868.56;1730773;81;21149;-48
2021/04/28 01:10:17;;;;;;;3.67;3.37;;;;;;;10.58;59.06;101868.13;1728052;80;21167;-48
2021/04/28 01:12:45;;;;;;;3.72;3.42;;;;;;;10.59;59.07;101869.88;1771264;79;21384;-48
2021/04/28 01:15:17;;;;;;;3.72;3.42;;;;;;;10.59;59.08;101874.62;1762122;80;21282;-49
2021/04/28 01:17:47;;;;;;;3.95;3.55;;;;;;;10.59;59.06;101872.02;1713598;82;21197;-49
2021/04/28 01:20:17;;;;;;;3.83;3.27;;;;;;;10.59;58.99;101871.17;1712269;82;21358;-48
2021/04/28 01:22:46;;;;;;;3.75;3.20;;;;;;;10.59;59.18;101868.58;1719806;82;21179;-48
2021/04/28 01:25:17;;;;;;;4.05;3.62;;;;;;;10.60;59.30;101865.08;1710433;82;21172;-48
2021/04/28 01:27:54;;;;;;;4.12;3.77;;;;;;;10.61;59.37;101870.73;1717885;82;21173;-49
2021/04/28 01:30:55;;;;;;;3.52;3.22;;;;;;;10.68;59.17;101867.21;1810117;79;22808;-48
2021/04/28 01:33:32;;;;;;;3.87;3.47;;;;;;;10.64;59.12;101862.47;1780409;80;21548;-48
2021/04/28 01:36:11;;;;;;;3.50;2.95;;;;;;;10.70;59.07;101850.27;1808069;79;22806;-48
2021/04/28 01:38:43;;;;;;;3.77;3.47;;;;;;;10.64;58.94;101851.18;1775503;80;21187;-48
2021/04/28 01:41:11;;;;;;;4.80;3.30;;;;;;;10.62;59.00;101846.42;1778970;80;21278;-48
2021/04/28 01:43:44;;;;;;;3.75;3.40;;;;;;;10.52;59.39;101838.23;1756829;81;21457;-48
2021/04/28 01:46:12;;;;;;;4.90;4.00;;;;;;;10.49;59.39;101847.33;1752843;81;21187;-49
2021/04/28 01:48:43;;;;;;;3.75;3.45;;;;;;;10.48;59.36;101845.62;1736685;81;21228;-49
2021/04/28 01:51:14;;;;;;;5.37;4.10;;;;;;;10.48;59.45;101848.22;1718278;82;21616;-49
2021/04/28 01:53:43;;;;;;;3.95;3.58;;;;;;;10.46;59.34;101849.53;1717756;82;21152;-48
2021/04/28 01:56:12;;;;;;;3.85;3.55;;;;;;;10.46;59.35;101846.94;1740631;81;21711;-48
2021/04/28 01:58:51;;;;;;;3.95;3.37;;;;;;;10.46;59.33;101847.36;1688813;83;21157;-48
2021/04/28 02:01:26;;;;;;;4.25;3.92;;;;;;;10.46;59.54;101846.94;1650702;86;21163;-49
2021/04/28 02:03:56;;;;;;;5.72;3.98;;;;;;;10.49;59.35;101846.91;1646653;86;21671;-48
2021/04/28 02:06:25;;;;;;;5.78;4.00;;;;;;;10.49;59.43;101851.23;1647051;86;21275;-48
2021/04/28 02:08:53;;;;;;;4.75;3.90;;;;;;;10.48;59.34;101852.12;1644303;86;21629;-48
2021/04/28 02:11:22;;;;;;;4.62;4.22;;;;;;;10.47;59.51;101860.78;1647684;86;21214;-49
2021/04/28 02:13:51;;;;;;;4.40;4.00;;;;;;;10.48;59.53;101866.01;1644564;86;21374;-48
2021/04/28 02:16:38;;;;;;;5.30;4.80;;;;;;;10.54;59.72;101866.41;1771565;79;23365;-48
2021/04/28 02:19:09;;;;;;;6.00;4.55;;;;;;;10.54;59.73;101865.11;1732628;82;21209;-48
2021/04/28 02:21:40;;;;;;;4.78;4.37;;;;;;;10.57;59.60;101865.11;1735843;82;21556;-48
2021/04/28 02:24:27;;;;;;;4.40;4.00;;;;;;;10.56;59.35;101859.03;1739126;82;21148;-48
2021/04/28 02:26:58;;;;;;;4.20;3.80;;;;;;;10.55;59.57;101859.05;1734859;82;21212;-48
2021/04/28 02:29:26;;;;;;;;;;;;;;;10.56;59.74;101868.57;1711074;82;21151;-48
2021/04/28 02:31:55;;;;;;;4.55;3.90;;;;;;;10.55;59.85;101870.76;1741530;82;20290;-48
2021/04/28 02:34:25;;;;;;;5.20;4.62;;;;;;;10.47;60.08;101875.97;1745813;82;21196;-49
2021/04/28 02:37:12;;;;;;;4.45;4.05;;;;;;;10.46;60.12;101886.39;1716479;82;21152;-48
2021/04/28 02:40:07;;;;;;;5.55;5.00;;;;;;;10.45;60.05;101875.54;1734423;82;21144;-49
2021/04/28 02:42:44;;;;;;;4.75;4.35;;;;;;;10.48;60.10;101867.73;1774079;79;23134;-48
2021/04/28 02:45:15;;;;;;;5.03;4.53;;;;;;;10.42;60.15;101866.03;1689312;84;21699;-48
2021/04/28 02:47:46;;;;;;;4.50;4.10;;;;;;;10.44;60.15;101864.72;1688555;85;21208;-49
2021/04/28 02:50:18;;;;;;;4.60;4.22;;;;;;;10.45;60.14;101864.70;1687870;85;21180;-49
2021/04/28 02:52:53;;;;;;;5.25;4.70;;;;;;;10.55;59.76;101872.90;1796655;77;23387;-49
2021/04/28 02:55:21;;;;;;;5.35;4.90;;;;;;;10.51;59.81;101875.09;1793401;78;21168;-48
2021/04/28 02:57:51;;;;;;;5.40;4.90;;;;;;;10.52;59.77;101878.56;1792950;78;21144;-48
2021/04/28 03:00:21;;;;;;;5.35;4.85;;;;;;;10.51;59.90;101867.70;1795924;78;21152;-48
2021/04/28 03:02:50;;;;;;;5.47;5.05;;;;;;;10.52;59.86;101875.96;1797033;78;21201;-48
2021/04/28 03:05:20;;;;;;;5.62;4.80;;;;;;;10.47;60.04;101889.41;1798746;78;21274;-48
2021/04/28 03:08:08;;;;;;;6.37;5.78;;;;;;;10.48;60.06;101893.76;1785371;78;21278;-48
2021/04/28 03:10:38;;;;;;;5.50;5.00;;;;;;;10.55;59.83;101883.77;1807879;78;21147;-48
2021/04/28 03:13:06;;;;;;;6.95;6.25;;;;;;;10.56;59.76;101884.19;1799104;78;21143;-48
2021/04/28 03:15:35;;;;;;;7.03;5.95;;;;;;;10.55;59.73;101890.28;1806274;78;21151;-49
2021/04/28 03:18:05;;;;;;;5.62;5.10;;;;;;;10.54;59.95;101892.44;1780432;78;21168;-48
2021/04/28 03:20:35;;;;;;;13.13;6.33;;;;;;;10.56;60.11;101892.87;1807016;78;21156;-49
2021/04/28 03:23:04;;;;;;;11.43;6.53;;;;;;;10.55;60.35;101891.58;1812062;78;21180;-48
2021/04/28 03:25:32;;;;;;;8.43;5.67;;;;;;;10.55;60.29;101895.48;1793322;78;21660;-48
2021/04/28 03:28:01;;;;;;;6.40;5.60;;;;;;;10.62;60.12;101897.17;1783414;78;21342;-48
2021/04/28 03:30:30;;;;;;;7.28;5.87;;;;;;;10.64;60.31;101898.03;1760114;81;21128;-49
2021/04/28 03:32:58;;;;;;;8.05;5.80;;;;;;;10.63;60.35;101901.52;1768242;80;21381;-48
2021/04/28 03:35:46;;;;;;;6.58;5.62;;;;;;;10.73;60.27;101906.25;1771626;79;23374;-49
2021/04/28 03:38:33;;;;;;;6.05;5.45;;;;;;;10.67;60.43;101913.66;1740263;82;21625;-48
2021/04/28 03:41:03;;;;;;;5.83;5.28;;;;;;;10.73;60.32;101917.96;1732117;82;21117;-49
2021/04/28 03:43:31;;;;;;;5.87;5.20;;;;;;;10.76;60.32;101912.30;1742542;82;21144;-49
2021/04/28 03:46:00;;;;;;;5.55;4.87;;;;;;;10.81;60.22;101914.46;1736646;82;21639;-48
2021/04/28 03:48:39;;;;;;;6.85;5.80;;;;;;;10.87;60.19;101919.64;1810070;79;22850;-48
2021/04/28 03:51:09;;;;;;;6.58;5.90;;;;;;;10.82;60.24;101920.08;1783560;80;21168;-48
2021/04/28 03:53:54;;;;;;;5.92;5.40;;;;;;;10.83;60.23;101920.52;1776753;80;21227;-48
2021/04/28 03:56:26;;;;;;;6.08;5.47;;;;;;;10.87;60.28;101923.55;1776833;80;21147;-48
2021/04/28 03:58:54;;;;;;;7.25;5.20;;;;;;;10.91;60.17;101921.36;1778102;80;21294;-48
2021/04/28 04:01:23;;;;;;;5.10;4.65;;;;;;;10.94;60.08;101921.78;1780013;80;21140;-48
2021/04/28 04:03:51;;;;;;;6.58;5.90;;;;;;;10.94;60.08;101923.92;1779841;80;21136;-49
2021/04/28 04:06:39;;;;;;;7.62;5.45;;;;;;;10.98;60.09;101922.20;1779903;80;21338;-49
2021/04/28 04:09:13;;;;;;;7.70;5.10;;;;;;;11.06;60.05;101928.23;1779962;80;21148;-49
2021/04/28 04:11:42;;;;;;;4.08;3.67;;;;;;;11.12;59.98;101930.38;1778959;80;21929;-48
2021/04/28 04:14:11;;;;;;;3.77;3.47;;;;;;;11.21;59.75;101935.52;1771582;80;21604;-49
2021/04/28 04:16:40;;;;;;;4.08;3.37;;;;;;;11.25;59.57;101935.92;1779199;80;21176;-48
2021/04/28 04:19:08;;;;;;;3.47;3.17;;;;;;;11.26;59.59;101927.25;1770194;80;21172;-48
2021/04/28 04:21:39;;;;;;;3.50;3.00;;;;;;;11.28;59.33;101917.67;1772399;80;21600;-48
2021/04/28 04:24:15;;;;;;;3.50;3.20;;;;;;;11.33;58.94;101914.59;1807638;79;22221;-48
2021/04/28 04:27:04;;;;;;;4.53;3.40;;;;;;;11.30;58.85;101928.95;1773921;80;21124;-48
2021/04/28 04:29:52;;;;;;;3.90;3.25;;;;;;;11.32;59.08;101936.33;1810111;79;22851;-48
2021/04/28 04:32:27;;;;;;;4.05;3.52;;;;;;;11.29;59.09;101948.05;1648798;86;21221;-48
2021/04/28 04:35:20;;;;;;;3.47;3.00;;;;;;;11.36;59.19;101948.89;1825133;77;22892;-48
2021/04/28 04:38:01;;;;;;;3.52;3.22;;;;;;;11.33;59.11;101954.14;1804248;78;21154;-48
2021/04/28 04:40:47;;;;;;;3.40;3.10;;;;;;;11.35;58.71;101946.71;1814535;78;21145;-48
2021/04/28 04:43:32;;;;;;;2.47;2.27;;;;;;;11.40;58.19;101948.87;1771554;79;22944;-48
2021/04/28 04:46:10;;;;;;;4.47;3.35;;;;;;;11.38;58.17;101957.56;1734275;82;21192;-48
2021/04/28 04:48:38;;;;;;;3.47;3.10;;;;;;;11.39;57.84;101965.40;1735443;82;21156;-48
2021/04/28 04:51:06;;;;;;;2.90;2.60;;;;;;;11.41;57.58;101953.66;1742036;82;21303;-48
2021/04/28 04:53:34;;;;;;;2.77;2.55;;;;;;;11.44;57.62;101959.70;1735271;82;21289;-48
2021/04/28 04:56:02;;;;;;;3.47;3.17;;;;;;;11.46;57.58;101959.25;1738744;82;21631;-48
2021/04/28 04:58:30;;;;;;;4.53;2.55;;;;;;;11.52;57.56;101960.11;1738211;82;21176;-48
2021/04/28 05:00:59;;;;;;;3.00;2.80;;;;;;;11.54;57.73;101951.38;1738734;82;21184;-49
2021/04/28 05:03:28;;;;;;;2.50;2.30;;;;;;;11.60;57.76;101956.58;1737192;82;21572;-48
2021/04/28 05:05:56;;;;;;;2.90;2.60;;;;;;;11.65;57.63;101956.52;1741019;82;21177;-49
2021/04/28 05:08:24;;;;;;;4.30;2.80;;;;;;;11.67;57.22;101957.41;1733379;82;21176;-49
2021/04/28 05:10:53;;;;;;;3.08;2.62;;;;;;;11.70;56.95;101954.80;1744446;82;21181;-49
2021/04/28 05:13:22;;;;;;;3.30;2.58;;;;;;;11.71;56.71;101960.41;1732084;82;21184;-49
2021/04/28 05:15:50;;;;;;;3.75;2.70;;;;;;;11.75;56.96;101958.21;1742165;82;21128;-49
2021/04/28 05:18:17;;;;;;;4.12;2.70;;;;;;;11.79;56.94;101961.22;1736051;81;21208;-48
2021/04/28 05:20:45;;;;;;;3.00;2.75;;;;;;;11.82;56.63;101965.13;1737864;82;21148;-48
2021/04/28 05:23:13;;;;;;;4.10;3.08;;;;;;;11.85;56.36;101971.64;1739519;82;21173;-48
2021/04/28 05:25:41;;;;;;;4.75;3.40;;;;;;;11.86;56.22;101975.53;1736862;82;21192;-48
2021/04/28 05:28:08;;;;;;;3.95;2.98;;;;;;;11.89;56.55;101975.95;1742104;82;21168;-48
2021/04/28 05:30:36;;;;;;;5.62;3.42;;;;;;;11.93;56.58;101973.74;1732068;82;21136;-48
2021/04/28 05:33:05;;;;;;;3.95;3.35;;;;;;;11.99;56.49;101982.83;1739016;82;21264;-48
2021/04/28 05:35:33;;;;;;;4.05;3.22;;;;;;;12.05;56.44;101986.69;1733365;82;21317;-49
2021/04/28 05:38:01;;;;;;;3.42;2.52;;;;;;;12.11;56.46;101995.33;1740127;82;21306;-48
2021/04/28 05:40:30;;;;;;;4.62;2.67;;;;;;;12.18;56.51;101989.59;1738572;82;21120;-48
2021/04/28 05:42:58;;;;;;;3.22;2.47;;;;;;;12.29;55.77;101992.98;1727346;81;21279;-48
2021/04/28 05:45:26;;;;;;;3.72;2.70;;;;;;;12.39;55.48;101986.80;1727924;82;21200;-48
2021/04/28 05:47:54;;;;;;;3.27;2.58;;;;;;;12.45;55.15;101993.27;1723355;82;21133;-48
2021/04/28 05:50:22;;;;;;;2.70;2.50;;;;;;;12.46;54.87;101999.36;1725478;82;21164;-48
2021/04/28 05:52:51;;;;;;;2.62;2.10;;;;;;;12.46;55.09;102007.19;1724811;82;21580;-48
2021/04/28 05:55:19;;;;;;;2.95;2.15;;;;;;;12.49;55.26;102019.76;1723258;82;21283;-49
2021/04/28 05:57:47;;;;;;;2.77;2.00;;;;;;;12.51;55.01;102024.52;1728243;82;21164;-48
2021/04/28 06:00:18;;;;;;;6.62;2.47;;;;;;;12.59;54.90;102028.39;1721299;82;21133;-48
2021/04/28 06:02:45;;;;;;;3.37;2.20;;;;;;;12.63;54.43;102027.02;1730487;82;21118;-48
2021/04/28 06:05:14;;;;;;;3.12;2.60;;;;;;;12.67;54.53;102023.52;1718480;82;21173;-48
2021/04/28 06:07:42;;;;;;;2.83;2.52;;;;;;;12.75;54.13;102028.66;1729579;82;21157;-48
2021/04/28 06:10:14;;;;;;;2.67;2.47;;;;;;;12.73;53.94;102026.06;1721927;82;21193;-48
2021/04/28 06:12:44;;;;;;;2.83;2.47;;;;;;;12.69;53.84;102030.90;1725612;82;21160;-48
2021/04/28 06:15:13;;;;;;;3.85;2.50;;;;;;;12.68;53.76;102030.45;1720095;82;21205;-48
2021/04/28 06:17:41;;;;;;;3.33;2.52;;;;;;;12.67;53.82;102026.13;1727041;82;21585;-48
2021/04/28 06:20:15;;;;;;;2.37;2.17;;;;;;;12.70;53.62;102023.47;1728415;82;21173;-48
2021/04/28 06:22:43;;;;;;;2.47;2.27;;;;;;;12.71;53.67;102027.83;1689077;84;21178;-48
2021/04/28 06:25:13;;;;;;;2.65;2.15;;;;;;;12.76;53.70;102026.02;1685798;84;21175;-48
2021/04/28 06:27:41;;;;;;;4.35;2.60;;;;;;;12.80;53.47;102024.23;1667043;85;21559;-48
2021/04/28 06:30:11;;;;;;;4.75;2.72;;;;;;;12.80;53.54;102030.33;1683968;84;21308;-48
2021/04/28 06:32:39;;;;;;;2.58;2.02;;;;;;;12.90;53.36;102026.73;1683997;84;21178;-48
2021/04/28 06:35:08;;;;;;;2.85;2.10;;;;;;;12.96;53.40;102027.13;1684031;84;21190;-49
2021/04/28 06:37:37;;;;;;;2.55;1.92;;;;;;;13.02;52.92;102031.81;1666832;85;21200;-48
2021/04/28 06:40:09;;;;;;;3.35;2.25;;;;;;;13.05;52.89;102035.74;1685583;84;21217;-48
2021/04/28 06:42:37;;;;;;;4.72;2.50;;;;;;;13.13;52.97;102033.50;1686885;84;21365;-48
2021/04/28 06:45:07;;;;;;;3.42;2.20;;;;;;;13.19;52.86;102038.64;1686738;84;21201;-48
2021/04/28 06:47:35;;;;;;;8.10;2.70;;;;;;;13.25;52.75;102040.72;1691085;84;21232;-49
2021/04/28 06:50:05;;;;;;;3.75;2.62;;;;;;;13.33;52.55;102044.56;1668721;85;21159;-48
2021/04/28 06:52:33;;;;;;;3.67;2.62;;;;;;;13.38;52.24;102046.23;1685982;84;21149;-48
2021/04/28 06:55:01;;;;;;;3.05;2.50;;;;;;;13.44;52.31;102046.58;1682203;84;21579;-48
2021/04/28 06:57:30;;;;;;;2.33;2.12;;;;;;;13.42;52.18;102054.89;1684559;84;21580;-48
2021/04/28 06:59:58;;;;;;;3.05;2.40;;;;;;;13.48;51.85;102045.22;1668842;85;21175;-49
2021/04/28 07:02:26;;;;;;;2.67;1.92;;;;;;;13.58;52.34;102049.44;1683914;84;21148;-48
2021/04/28 07:04:55;;;;;;;2.20;2.00;;;;;;;13.70;52.35;102048.42;1666815;85;21314;-48
2021/04/28 07:07:24;;;;;;;2.37;2.17;;;;;;;13.91;51.40;102053.32;1684391;84;21180;-48
2021/04/28 07:09:52;;;;;;;4.25;2.55;;;;;;;14.09;51.00;102059.61;1666861;85;21200;-48
2021/04/28 07:12:21;;;;;;;2.50;2.20;;;;;;;14.20;50.30;102056.36;1684032;84;21333;-49
2021/04/28 07:14:49;;;;;;;4.05;2.40;;;;;;;14.22;50.19;102057.20;1665722;85;21235;-48
2021/04/28 07:17:18;;;;;;;2.92;2.08;;;;;;;14.21;50.53;102058.11;1685810;84;21178;-48
2021/04/28 07:19:47;;;;;;;3.27;2.17;;;;;;;14.22;49.98;102056.36;1696498;83;21661;-48
2021/04/28 07:22:14;;;;;;;2.52;1.92;;;;;;;14.14;50.19;102060.83;1729161;82;21150;-48
2021/04/28 07:24:43;;;;;;;2.83;2.35;;;;;;;14.08;49.99;102053.94;1722553;82;21290;-49
2021/04/28 07:27:11;;;;;;;5.20;2.27;;;;;;;14.01;50.09;102062.80;1724361;82;21149;-48
2021/04/28 07:29:39;;;;;;;2.33;2.10;;;;;;;13.95;50.02;102065.47;1727371;82;21149;-48
2021/04/28 07:32:08;;;;;;;2.30;2.10;;;;;;;13.96;49.87;102069.83;1721036;82;21161;-48
2021/04/28 07:34:35;;;;;;;1.90;1.80;;;;;;;13.84;50.09;102071.33;1727720;82;21157;-48
2021/04/28 07:37:04;;;;;;;3.55;2.22;;;;;;;13.80;50.27;102074.88;1723627;82;21121;-48
2021/04/28 07:39:32;;;;;;;2.95;2.55;;;;;;;13.80;50.46;102070.95;1724831;82;21164;-47
2021/04/28 07:42:01;;;;;;;4.10;2.40;;;;;;;13.72;50.47;102067.58;1723873;82;21161;-48
2021/04/28 07:44:31;;;;;;;3.05;2.75;;;;;;;13.76;50.81;102062.28;1737580;82;21164;-48
2021/04/28 07:46:59;;;;;;;2.52;2.33;;;;;;;13.79;50.56;102069.20;1741716;82;21164;-48
2021/04/28 07:49:27;;;;;;;4.05;2.92;;;;;;;13.79;50.71;102063.97;1732778;82;21145;-48
2021/04/28 07:51:55;;;;;;;3.25;2.85;;;;;;;13.82;50.54;102060.02;1744531;82;21114;-48
2021/04/28 07:57:02;;;;;;;3.50;2.85;;;;;;;13.83;50.73;102063.03;1807537;79;22356;-49
2021/04/28 07:59:30;;;;;;;2.83;2.50;;;;;;;13.75;50.58;102057.92;1769768;80;21577;-49
2021/04/28 08:01:58;;;;;;;4.65;2.95;;;;;;;13.72;50.55;102062.34;1772152;80;21532;-48
2021/04/28 08:04:26;;;;;;;3.80;2.52;;;;;;;13.71;50.47;102057.98;1774620;80;21246;-49
2021/04/28 08:06:55;;;;;;;2.83;2.60;;;;;;;13.73;50.81;102074.52;1768190;80;21144;-49
2021/04/28 08:09:23;;;;;;;7.12;3.20;;;;;;;13.72;50.63;102066.27;1775717;80;21116;-49
2021/04/28 08:11:51;;;;;;;3.83;3.35;;;;;;;13.72;50.51;102070.19;1769521;80;21631;-49
2021/04/28 08:14:19;;;;;;;4.95;3.80;;;;;;;13.70;50.98;102071.97;1774344;80;21148;-49
2021/04/28 08:16:48;;;;;;;6.03;3.45;;;;;;;13.70;51.07;102076.73;1777699;80;21140;-48
2021/04/28 08:19:16;;;;;;;2.87;2.62;;;;;;;13.72;50.41;102071.50;1765697;80;21277;-48
2021/04/28 08:21:44;;;;;;;2.98;2.62;;;;;;;13.66;50.56;102067.66;1770520;80;21155;-48
2021/04/28 08:24:14;;;;;;;3.08;2.67;;;;;;;13.64;50.46;102064.20;1775818;80;21168;-49
2021/04/28 08:26:45;;;;;;;3.08;2.37;;;;;;;13.62;50.22;102060.75;1768466;80;21147;-48
2021/04/28 08:29:13;;;;;;;3.12;2.42;;;;;;;13.65;50.59;102064.61;1774852;80;21143;-48
2021/04/28 08:31:41;;;;;;;2.90;2.40;;;;;;;13.68;50.56;102071.96;1771996;80;21542;-49
2021/04/28 08:34:09;;;;;;;6.62;5.37;;;;;;;13.72;51.06;102067.58;1772611;80;22060;-49
2021/04/28 08:36:37;;;;;;;4.30;3.90;;;;;;;13.73;52.16;102069.29;1771539;80;21552;-49
2021/04/28 08:39:08;;;;;;;6.87;4.62;;;;;;;13.66;52.73;102071.59;1774160;80;21647;-49
2021/04/28 08:41:36;;;;;;;4.65;4.25;;;;;;;13.60;53.05;102082.13;1770057;80;21116;-48
2021/04/28 08:44:06;;;;;;;5.78;4.60;;;;;;;13.55;53.39;102087.85;1777147;80;21121;-49
2021/04/28 08:46:37;;;;;;;4.20;3.80;;;;;;;13.52;53.61;102090.48;1765541;80;21179;-49
2021/04/28 08:49:06;;;;;;;4.25;3.85;;;;;;;13.49;53.63;102087.93;1772675;80;21116;-49
2021/04/28 08:51:33;;;;;;;4.40;4.00;;;;;;;13.48;53.63;102099.25;1775554;80;21147;-49
2021/04/28 08:54:02;;;;;;;4.47;4.05;;;;;;;13.42;53.61;102100.64;1759027;80;21572;-49
2021/04/28 08:56:30;;;;;;;5.00;4.35;;;;;;;13.38;53.79;102101.56;1766244;80;21145;-49
2021/04/28 08:59:04;;;;;;;4.70;4.30;;;;;;;13.37;53.85;102105.08;1766501;80;21160;-49
2021/04/28 09:01:32;;;;;;;5.72;4.42;;;;;;;13.35;53.82;102108.16;1764389;80;21176;-49
2021/04/28 09:04:01;;;;;;;5.22;4.72;;;;;;;13.32;53.69;102112.09;1734348;82;21608;-48
2021/04/28 09:06:33;;;;;;;6.20;4.22;;;;;;;13.24;53.85;102110.02;1734070;83;21253;-49
2021/04/28 09:09:14;;;;;;;5.65;4.00;;;;;;;13.17;54.03;102105.75;1733771;83;21155;-48
2021/04/28 09:12:14;;;;;;;5.12;4.33;;;;;;;13.14;54.34;102105.77;1733772;83;21628;-49
2021/04/28 09:18:39;;;;;;;4.70;3.67;;;;;;;13.12;54.43;102095.34;1727189;83;21168;-48
2021/04/28 09:21:13;;;;;;;5.85;3.87;;;;;;;13.22;54.41;102076.49;1733491;83;21255;-49
2021/04/28 09:24:21;;;;;;;5.65;4.83;;;;;;;13.32;54.52;102076.80;1811305;79;22859;-49
2021/04/28 09:27:08;;;;;;;4.05;3.65;;;;;;;13.33;54.46;102075.94;1739883;81;21172;-49
2021/04/28 09:29:57;;;;;;;4.05;3.67;;;;;;;13.39;54.08;102074.55;1819952;77;22924;-48
2021/04/28 09:32:38;;;;;;;5.40;3.90;;;;;;;13.32;53.92;102075.50;1776401;80;21600;-49
2021/04/28 09:35:20;;;;;;;4.35;3.87;;;;;;;13.31;54.00;102069.86;1763438;81;21155;-48
2021/04/28 09:38:01;;;;;;;4.42;4.03;;;;;;;13.29;53.94;102066.41;1663638;85;21192;-48
2021/04/28 09:43:37;;;;;;;4.75;4.25;;;;;;;13.15;54.19;102078.77;1771366;79;23278;-49
2021/04/28 09:46:05;;;;;;;4.53;4.12;;;;;;;13.07;54.30;102084.06;1736792;82;21152;-48
2021/04/28 09:48:39;;;;;;;8.70;4.53;;;;;;;13.08;54.76;102086.24;1737840;82;21600;-48
2021/04/28 09:51:09;;;;;;;5.62;4.12;;;;;;;13.10;54.61;102093.63;1733835;82;21286;-48
2021/04/28 09:53:37;;;;;;;;;;;;;;;13.11;54.60;102090.98;1741002;81;21120;-49
2021/04/28 09:56:16;;;;;;;6.87;4.83;;;;;;;13.15;54.76;102085.30;1735365;82;20239;-49
2021/04/28 09:58:52;;;;;;;5.72;4.80;;;;;;;13.19;54.73;102080.47;1735232;82;21160;-50
2021/04/28 10:01:34;;;;;;;4.47;4.08;;;;;;;13.29;54.44;102087.31;1735334;82;21161;-49
2021/04/28 10:04:05;;;;;;;6.10;5.20;;;;;;;13.34;54.06;102085.49;1715679;83;21639;-49
2021/04/28 10:06:49;;;;;;;5.80;5.17;;;;;;;13.37;53.96;102080.24;1721011;83;21255;-48
2021/04/28 10:09:38;;;;;;;7.47;5.00;;;;;;;13.39;54.04;102079.34;1716749;83;21124;-49
2021/04/28 10:12:11;;;;;;;5.33;4.75;;;;;;;13.41;54.01;102081.94;1703173;83;21157;-49
2021/04/28 10:14:45;;;;;;;6.85;5.53;;;;;;;13.42;53.89;102075.80;1818610;79;22875;-49
2021/04/28 10:17:14;;;;;;;6.17;5.45;;;;;;;13.37;53.89;102069.78;1779202;80;21175;-49
2021/04/28 10:19:42;;;;;;;5.12;4.60;;;;;;;13.36;53.71;102075.45;1776717;80;21136;-48
2021/04/28 10:22:15;;;;;;;5.12;4.62;;;;;;;13.34;53.98;102074.60;1776793;80;21164;-49
2021/04/28 10:24:47;;;;;;;6.97;5.12;;;;;;;13.32;53.99;102071.58;1777315;80;21160;-49
2021/04/28 10:27:17;;;;;;;;;;;;;;;13.28;54.11;102068.58;1742468;81;21207;-48
2021/04/28 10:29:51;;;;;;;4.75;4.35;;;;;;;13.26;54.20;102067.73;1740341;82;20132;-49
2021/04/28 10:32:21;;;;;;;7.22;5.50;;;;;;;13.22;54.17;102073.87;1740274;82;21192;-48
2021/04/28 10:35:02;;;;;;;6.53;4.72;;;;;;;13.17;54.30;102062.16;1741314;82;21156;-49
2021/04/28 10:37:32;;;;;;;5.90;5.30;;;;;;;13.18;54.46;102065.22;1748044;82;21584;-49
2021/04/28 10:40:00;;;;;;;6.15;5.30;;;;;;;13.15;54.72;102059.17;1736789;82;21160;-48
2021/04/28 10:42:36;;;;;;;7.72;5.22;;;;;;;13.14;54.84;102057.42;1743398;82;21651;-48
2021/04/28 10:45:09;;;;;;;6.55;5.67;;;;;;;13.08;54.88;102055.29;1742659;82;21810;-48
2021/04/28 10:47:44;;;;;;;16.15;13.55;;;;;;;13.04;55.07;102058.82;1741596;82;21628;-49
2021/04/28 10:50:22;;;;;;;7.78;6.97;;;;;;;13.06;55.21;102053.14;1771944;79;23181;-48
2021/04/28 10:53:00;;;;;;;7.37;6.53;;;;;;;13.01;55.11;102061.45;1736285;82;21306;-49
2021/04/28 10:55:51;;;;;;;6.35;5.53;;;;;;;12.95;55.29;102064.13;1738146;82;21148;-49
2021/04/28 10:58:34;;;;;;;5.80;4.65;;;;;;;12.92;55.39;102064.15;1744524;82;21145;-48
2021/04/28 11:01:07;;;;;;;10.45;9.45;;;;;;;12.93;55.37;102059.37;1740064;82;21160;-49
2021/04/28 11:03:46;;;;;;;11.90;7.35;;;;;;;12.89;55.35;102053.75;1738383;82;21192;-48
2021/04/28 11:06:25;;;;;;;7.95;6.65;;;;;;;12.85;55.46;102048.56;1732225;82;21215;-49
2021/04/28 11:09:03;;;;;;;7.65;6.92;;;;;;;12.84;55.55;102048.13;1738081;82;21164;-49
2021/04/28 11:11:44;;;;;;;7.05;6.20;;;;;;;12.84;55.63;102042.47;1737920;82;21168;-49
2021/04/28 11:14:18;;;;;;;17.00;14.05;;;;;;;12.88;55.89;102038.10;1743776;82;21664;-48
2021/04/28 11:17:02;;;;;;;10.98;9.40;;;;;;;12.93;56.02;102034.55;1737266;82;21565;-49
2021/04/28 11:19:40;;;;;;;10.58;8.60;;;;;;;12.98;55.78;102032.73;1734505;82;21188;-48
2021/04/28 11:22:29;;;;;;;7.55;6.85;;;;;;;13.02;55.83;102036.20;1737895;82;21136;-48
2021/04/28 11:25:06;;;;;;;7.80;7.10;;;;;;;13.06;55.64;102037.92;1738005;81;21148;-49
2021/04/28 11:27:53;;;;;;;12.43;11.08;;;;;;;13.07;55.70;102031.80;1737987;81;21572;-49
2021/04/28 11:30:23;;;;;;;6.87;6.17;;;;;;;13.08;55.58;102035.28;1737934;82;21165;-49
2021/04/28 11:33:16;;;;;;;7.70;5.87;;;;;;;13.08;55.75;102035.69;1730257;82;21167;-48
2021/04/28 11:35:59;;;;;;;7.75;6.65;;;;;;;13.08;55.61;102035.69;1738256;82;21101;-48
2021/04/28 11:38:29;;;;;;;5.60;4.75;;;;;;;13.12;55.71;102031.75;1740050;82;21157;-49
2021/04/28 11:41:08;;;;;;;11.43;8.78;;;;;;;13.18;55.50;102029.06;1728225;81;21160;-48
2021/04/28 11:43:41;;;;;;;11.20;10.20;;;;;;;13.20;55.53;102031.21;1740480;82;21175;-49
2021/04/28 11:46:19;;;;;;;7.20;6.50;;;;;;;13.22;55.64;102030.75;1738032;82;21100;-49
2021/04/28 11:48:52;;;;;;;10.68;9.50;;;;;;;13.29;55.66;102035.03;1734114;82;21149;-49
2021/04/28 11:51:28;;;;;;;8.13;6.45;;;;;;;13.34;55.42;102033.20;1739926;82;21140;-48
2021/04/28 11:53:58;;;;;;;7.12;6.00;;;;;;;13.40;55.30;102030.52;1686781;84;21235;-48
2021/04/28 11:56:42;;;;;;;6.15;5.60;;;;;;;13.43;55.02;102038.33;1621179;88;21200;-49
2021/04/28 11:59:26;;;;;;;12.23;8.48;;;;;;;13.50;55.03;102050.42;1810132;79;23046;-49